createdAt,value
2023-03-11T00:00:48.801Z,0.00
2023-03-11T00:01:48.810Z,0.00
2023-03-11T00:02:48.783Z,0.00
2023-03-11T00:03:48.800Z,0.00
2023-03-11T00:04:48.848Z,0.00
2023-03-11T00:05:48.787Z,0.00
2023-03-11T00:06:48.787Z,0.00
2023-03-11T00:07:48.788Z,0.00
2023-03-11T00:08:48.782Z,0.00
2023-03-11T00:09:48.802Z,0.00
2023-03-11T00:10:48.811Z,0.00
2023-03-11T00:11:48.755Z,0.00
2023-03-11T00:12:48.755Z,0.00
2023-03-11T00:13:48.750Z,0.00
2023-03-11T00:14:48.752Z,0.00
2023-03-11T00:15:48.766Z,0.00
2023-03-11T00:16:48.803Z,0.00
2023-03-11T00:17:48.733Z,0.00
2023-03-11T00:18:48.708Z,0.00
2023-03-11T00:19:48.707Z,0.00
2023-03-11T00:20:48.730Z,0.00
2023-03-11T00:21:48.689Z,0.00
2023-03-11T00:22:48.701Z,0.00
2023-03-11T00:23:48.704Z,0.00
2023-03-11T00:24:48.695Z,0.00
2023-03-11T00:25:48.667Z,0.00
2023-03-11T00:26:48.665Z,0.00
2023-03-11T00:27:48.676Z,0.00
2023-03-11T00:28:48.684Z,0.00
2023-03-11T00:29:48.661Z,0.00
2023-03-11T00:30:48.742Z,0.00
2023-03-11T00:31:48.674Z,0.00
2023-03-11T00:32:48.697Z,0.00
2023-03-11T00:33:48.658Z,0.00
2023-03-11T00:34:48.641Z,0.00
2023-03-11T00:35:48.626Z,0.00
2023-03-11T00:36:48.626Z,0.00
2023-03-11T00:37:48.629Z,0.00
2023-03-11T00:38:48.650Z,0.00
2023-03-11T00:39:48.618Z,0.00
2023-03-11T00:40:48.588Z,0.00
2023-03-11T00:41:48.609Z,0.00
2023-03-11T00:42:48.607Z,0.00
2023-03-11T00:43:48.573Z,0.00
2023-03-11T00:44:48.582Z,0.00
2023-03-11T00:45:48.629Z,0.00
2023-03-11T00:46:48.572Z,0.00
2023-03-11T00:47:48.588Z,0.00
2023-03-11T00:48:48.557Z,0.00
2023-03-11T00:49:48.539Z,0.00
2023-03-11T00:50:48.562Z,0.00
2023-03-11T00:51:48.589Z,0.00
2023-03-11T00:52:48.555Z,0.00
2023-03-11T00:53:48.535Z,0.00
2023-03-11T00:54:48.518Z,0.00
2023-03-11T00:55:48.542Z,0.00
2023-03-11T00:56:48.516Z,0.00
2023-03-11T00:57:48.520Z,0.00
2023-03-11T00:58:48.527Z,0.00
2023-03-11T00:59:48.491Z,0.00
2023-03-11T01:00:48.489Z,0.00
2023-03-11T01:01:48.501Z,0.00
2023-03-11T01:02:48.518Z,0.00
2023-03-11T01:03:48.481Z,0.00
2023-03-11T01:04:48.543Z,0.00
2023-03-11T01:05:48.466Z,0.00
2023-03-11T01:06:48.472Z,0.00
2023-03-11T01:07:48.483Z,0.00
2023-03-11T01:08:48.498Z,0.00
2023-03-11T01:09:48.447Z,0.00
2023-03-11T01:10:48.450Z,0.00
2023-03-11T01:11:48.435Z,0.00
2023-03-11T01:12:48.440Z,0.00
2023-03-11T01:13:48.416Z,0.00
2023-03-11T01:14:48.480Z,0.00
2023-03-11T01:15:48.424Z,0.00
2023-03-11T01:16:48.414Z,0.00
2023-03-11T01:17:48.408Z,0.00
2023-03-11T01:18:48.393Z,0.00
2023-03-11T01:19:48.412Z,0.00
2023-03-11T01:20:48.411Z,0.00
2023-03-11T01:21:48.380Z,0.00
2023-03-11T01:22:48.410Z,0.00
2023-03-11T01:23:48.360Z,0.00
2023-03-11T01:24:48.372Z,0.00
2023-03-11T01:25:48.360Z,0.00
2023-03-11T01:26:48.343Z,0.00
2023-03-11T01:27:48.334Z,0.00
2023-03-11T01:28:48.374Z,0.00
2023-03-11T01:29:48.333Z,0.00
2023-03-11T01:30:48.335Z,0.00
2023-03-11T01:31:48.327Z,0.00
2023-03-11T01:32:48.365Z,0.00
2023-03-11T01:33:48.310Z,0.00
2023-03-11T01:34:48.315Z,0.00
2023-03-11T01:35:48.309Z,0.00
2023-03-11T01:36:48.306Z,0.00
2023-03-11T01:37:48.338Z,0.00
2023-03-11T01:38:48.313Z,0.00
2023-03-11T01:39:48.271Z,0.00
2023-03-11T01:40:48.281Z,0.00
2023-03-11T01:41:48.275Z,0.00
2023-03-11T01:42:48.279Z,0.00
2023-03-11T01:43:48.259Z,0.00
2023-03-11T01:44:48.265Z,0.00
2023-03-11T01:45:48.249Z,0.00
2023-03-11T01:46:48.342Z,0.00
2023-03-11T01:47:48.220Z,0.00
2023-03-11T01:48:48.235Z,0.00
2023-03-11T01:49:48.231Z,0.00
2023-03-11T01:50:48.221Z,0.00
2023-03-11T01:51:48.202Z,0.00
2023-03-11T01:52:48.216Z,0.00
2023-03-11T01:53:48.234Z,0.00
2023-03-11T01:54:50.154Z,0.00
2023-03-11T01:55:48.182Z,0.00
2023-03-11T01:56:48.191Z,0.00
2023-03-11T01:57:48.186Z,0.00
2023-03-11T01:58:48.172Z,0.00
2023-03-11T01:59:48.203Z,0.00
2023-03-11T02:00:48.232Z,0.00
2023-03-11T02:01:48.305Z,0.00
2023-03-11T02:02:48.202Z,0.00
2023-03-11T02:03:48.144Z,0.00
2023-03-11T02:04:48.144Z,0.00
2023-03-11T02:05:48.160Z,0.00
2023-03-11T02:06:48.122Z,0.00
2023-03-11T02:07:48.120Z,0.00
2023-03-11T02:08:48.113Z,0.00
2023-03-11T02:09:48.107Z,0.00
2023-03-11T02:10:48.110Z,0.00
2023-03-11T02:11:48.130Z,0.00
2023-03-11T02:12:48.114Z,0.00
2023-03-11T02:13:48.105Z,0.00
2023-03-11T02:14:48.122Z,0.00
2023-03-11T02:15:48.184Z,0.00
2023-03-11T02:16:48.091Z,0.00
2023-03-11T02:17:48.081Z,0.00
2023-03-11T02:18:48.074Z,0.00
2023-03-11T02:19:48.050Z,0.00
2023-03-11T02:20:48.088Z,0.00
2023-03-11T02:21:48.081Z,0.00
2023-03-11T02:22:48.046Z,0.00
2023-03-11T02:23:48.064Z,0.00
2023-03-11T02:24:48.039Z,0.00
2023-03-11T02:25:48.036Z,0.00
2023-03-11T02:26:48.038Z,0.00
2023-03-11T02:27:48.023Z,0.00
2023-03-11T02:28:48.016Z,0.00
2023-03-11T02:29:48.029Z,0.00
2023-03-11T02:30:48.017Z,0.00
2023-03-11T02:31:48.077Z,0.00
2023-03-11T02:32:48.078Z,0.00
2023-03-11T02:33:47.990Z,0.00
2023-03-11T02:34:47.985Z,0.00
2023-03-11T02:35:48.039Z,0.00
2023-03-11T02:36:47.980Z,0.00
2023-03-11T02:37:47.992Z,0.00
2023-03-11T02:38:47.975Z,0.00
2023-03-11T02:39:47.951Z,0.00
2023-03-11T02:40:47.990Z,0.00
2023-03-11T02:41:47.944Z,0.00
2023-03-11T02:42:48.046Z,0.00
2023-03-11T02:43:47.928Z,0.00
2023-03-11T02:44:47.926Z,0.00
2023-03-11T02:45:47.932Z,0.00
2023-03-11T02:46:47.993Z,0.00
2023-03-11T02:47:47.898Z,0.00
2023-03-11T02:48:47.935Z,0.00
2023-03-11T02:49:47.911Z,0.00
2023-03-11T02:50:47.882Z,0.00
2023-03-11T02:51:47.893Z,0.00
2023-03-11T02:52:47.867Z,0.00
2023-03-11T02:53:47.859Z,0.00
2023-03-11T02:54:47.866Z,0.00
2023-03-11T02:55:47.865Z,0.00
2023-03-11T02:56:47.857Z,0.00
2023-03-11T02:57:47.852Z,0.00
2023-03-11T02:58:47.841Z,0.00
2023-03-11T02:59:47.826Z,0.00
2023-03-11T03:00:47.899Z,0.00
2023-03-11T03:01:47.839Z,0.00
2023-03-11T03:02:47.813Z,0.00
2023-03-11T03:03:47.846Z,0.00
2023-03-11T03:04:47.842Z,0.00
2023-03-11T03:05:47.806Z,0.00
2023-03-11T03:06:47.791Z,0.00
2023-03-11T03:07:47.788Z,0.00
2023-03-11T03:08:47.790Z,0.00
2023-03-11T03:09:47.791Z,0.00
2023-03-11T03:10:47.783Z,0.00
2023-03-11T03:11:47.777Z,0.00
2023-03-11T03:12:47.759Z,0.00
2023-03-11T03:13:47.788Z,0.00
2023-03-11T03:14:47.772Z,0.00
2023-03-11T03:15:47.750Z,0.00
2023-03-11T03:16:47.897Z,0.00
2023-03-11T03:17:47.747Z,0.00
2023-03-11T03:18:47.738Z,0.00
2023-03-11T03:19:47.744Z,0.00
2023-03-11T03:20:47.729Z,0.00
2023-03-11T03:21:47.726Z,0.00
2023-03-11T03:22:47.709Z,0.00
2023-03-11T03:23:47.703Z,0.00
2023-03-11T03:24:47.702Z,0.00
2023-03-11T03:25:47.710Z,0.00
2023-03-11T03:26:47.699Z,0.00
2023-03-11T03:27:47.689Z,0.00
2023-03-11T03:28:47.686Z,0.00
2023-03-11T03:29:47.696Z,0.00
2023-03-11T03:30:47.689Z,0.00
2023-03-11T03:31:47.666Z,0.00
2023-03-11T03:32:47.724Z,0.00
2023-03-11T03:33:47.651Z,0.00
2023-03-11T03:34:47.652Z,0.00
2023-03-11T03:35:47.684Z,0.00
2023-03-11T03:36:47.651Z,0.00
2023-03-11T03:37:47.632Z,0.00
2023-03-11T03:38:47.628Z,0.00
2023-03-11T03:39:47.617Z,0.00
2023-03-11T03:40:47.617Z,0.00
2023-03-11T03:41:47.640Z,0.00
2023-03-11T03:42:47.609Z,0.00
2023-03-11T03:43:47.595Z,0.00
2023-03-11T03:44:47.595Z,0.00
2023-03-11T03:45:47.607Z,0.00
2023-03-11T03:46:47.585Z,0.00
2023-03-11T03:47:47.596Z,0.00
2023-03-11T03:48:47.574Z,0.00
2023-03-11T03:49:47.563Z,0.00
2023-03-11T03:50:47.568Z,0.00
2023-03-11T03:51:47.551Z,0.00
2023-03-11T03:52:47.579Z,0.00
2023-03-11T03:53:47.557Z,0.00
2023-03-11T03:54:47.540Z,0.00
2023-03-11T03:55:47.536Z,0.00
2023-03-11T03:56:47.542Z,0.00
2023-03-11T03:57:47.526Z,0.00
2023-03-11T03:58:47.547Z,0.00
2023-03-11T03:59:47.519Z,0.00
2023-03-11T04:00:47.524Z,0.00
2023-03-11T04:01:47.510Z,0.00
2023-03-11T04:02:47.512Z,0.00
2023-03-11T04:03:47.597Z,0.00
2023-03-11T04:04:47.523Z,0.00
2023-03-11T04:05:47.502Z,0.00
2023-03-11T04:06:47.495Z,0.00
2023-03-11T04:07:47.497Z,0.00
2023-03-11T04:08:47.480Z,0.00
2023-03-11T04:09:47.507Z,0.00
2023-03-11T04:10:47.502Z,0.00
2023-03-11T04:11:47.466Z,0.00
2023-03-11T04:12:47.476Z,0.00
2023-03-11T04:13:47.469Z,0.00
2023-03-11T04:14:47.464Z,0.00
2023-03-11T04:15:47.476Z,0.00
2023-03-11T04:16:47.493Z,0.00
2023-03-11T04:17:47.449Z,0.00
2023-03-11T04:18:47.464Z,0.00
2023-03-11T04:19:47.444Z,0.00
2023-03-11T04:20:47.434Z,0.00
2023-03-11T04:21:47.417Z,0.00
2023-03-11T04:22:47.440Z,0.00
2023-03-11T04:23:47.417Z,0.00
2023-03-11T04:24:47.410Z,0.00
2023-03-11T04:25:47.408Z,0.00
2023-03-11T04:26:47.413Z,0.00
2023-03-11T04:27:47.381Z,0.00
2023-03-11T04:28:47.446Z,0.00
2023-03-11T04:29:47.362Z,0.00
2023-03-11T04:30:47.403Z,0.00
2023-03-11T04:31:47.354Z,0.00
2023-03-11T04:32:47.409Z,0.00
2023-03-11T04:33:47.349Z,0.00
2023-03-11T04:34:47.406Z,0.00
2023-03-11T04:35:47.384Z,0.00
2023-03-11T04:36:47.347Z,0.00
2023-03-11T04:37:47.342Z,0.00
2023-03-11T04:38:47.342Z,0.00
2023-03-11T04:39:47.363Z,0.00
2023-03-11T04:40:47.316Z,0.00
2023-03-11T04:41:47.329Z,0.00
2023-03-11T04:42:47.322Z,0.00
2023-03-11T04:43:47.293Z,0.00
2023-03-11T04:44:47.305Z,0.00
2023-03-11T04:45:47.458Z,0.00
2023-03-11T04:46:47.287Z,0.00
2023-03-11T04:47:47.296Z,0.00
2023-03-11T04:48:47.289Z,0.00
2023-03-11T04:49:47.267Z,0.00
2023-03-11T04:50:47.308Z,0.00
2023-03-11T04:51:47.285Z,0.00
2023-03-11T04:52:47.247Z,0.00
2023-03-11T04:53:47.246Z,0.00
2023-03-11T04:54:47.232Z,0.00
2023-03-11T04:55:47.245Z,0.00
2023-03-11T04:56:47.238Z,0.00
2023-03-11T04:57:47.245Z,0.00
2023-03-11T04:58:47.245Z,0.00
2023-03-11T04:59:47.221Z,0.00
2023-03-11T05:00:47.204Z,0.00
2023-03-11T05:01:47.294Z,0.00
2023-03-11T05:02:47.210Z,0.00
2023-03-11T05:03:47.180Z,0.00
2023-03-11T05:04:47.223Z,0.00
2023-03-11T05:05:47.166Z,0.00
2023-03-11T05:06:47.166Z,0.00
2023-03-11T05:07:47.179Z,0.00
2023-03-11T05:08:47.148Z,0.00
2023-03-11T05:09:47.152Z,0.00
2023-03-11T05:10:47.147Z,0.00
2023-03-11T05:11:47.136Z,0.00
2023-03-11T05:12:47.169Z,0.00
2023-03-11T05:13:47.137Z,0.00
2023-03-11T05:14:47.125Z,0.00
2023-03-11T05:15:47.160Z,0.00
2023-03-11T05:16:47.146Z,0.00
2023-03-11T05:17:47.109Z,0.00
2023-03-11T05:18:47.099Z,0.00
2023-03-11T05:19:47.092Z,0.00
2023-03-11T05:20:48.022Z,0.00
2023-03-11T05:21:47.077Z,0.00
2023-03-11T05:22:47.099Z,0.00
2023-03-11T05:23:47.071Z,0.00
2023-03-11T05:24:47.071Z,0.00
2023-03-11T05:25:47.095Z,0.00
2023-03-11T05:26:48.580Z,0.00
2023-03-11T05:27:47.053Z,0.00
2023-03-11T05:28:47.049Z,0.00
2023-03-11T05:29:47.042Z,0.00
2023-03-11T05:30:47.129Z,0.00
2023-03-11T05:31:47.026Z,0.00
2023-03-11T05:32:47.084Z,0.00
2023-03-11T05:33:47.015Z,0.00
2023-03-11T05:34:47.017Z,0.00
2023-03-11T05:35:47.064Z,0.00
2023-03-11T05:36:47.031Z,0.00
2023-03-11T05:37:47.014Z,0.00
2023-03-11T05:38:46.997Z,0.00
2023-03-11T05:39:46.987Z,0.00
2023-03-11T05:40:46.995Z,0.00
2023-03-11T05:41:46.990Z,0.00
2023-03-11T05:42:46.987Z,0.00
2023-03-11T05:43:46.994Z,0.00
2023-03-11T05:44:46.973Z,0.00
2023-03-11T05:45:46.971Z,0.00
2023-03-11T05:46:46.996Z,0.00
2023-03-11T05:47:46.954Z,0.00
2023-03-11T05:48:46.942Z,0.00
2023-03-11T05:49:46.955Z,0.00
2023-03-11T05:50:46.938Z,0.00
2023-03-11T05:51:46.937Z,0.00
2023-03-11T05:52:46.925Z,0.00
2023-03-11T05:53:46.912Z,5.62
2023-03-11T05:54:46.913Z,5.62
2023-03-11T05:55:46.938Z,5.62
2023-03-11T05:56:46.915Z,5.62
2023-03-11T05:57:46.891Z,5.62
2023-03-11T05:58:46.890Z,5.62
2023-03-11T05:59:46.893Z,5.62
2023-03-11T06:00:46.886Z,5.62
2023-03-11T06:01:46.881Z,5.62
2023-03-11T06:02:46.878Z,5.62
2023-03-11T06:03:46.954Z,5.62
2023-03-11T06:04:46.989Z,5.62
2023-03-11T06:05:46.863Z,5.62
2023-03-11T06:06:46.859Z,5.62
2023-03-11T06:07:46.834Z,5.62
2023-03-11T06:08:46.826Z,5.62
2023-03-11T06:09:47.057Z,5.62
2023-03-11T06:10:48.867Z,5.62
2023-03-11T06:11:46.809Z,5.62
2023-03-11T06:12:46.807Z,5.62
2023-03-11T06:13:46.812Z,5.62
2023-03-11T06:14:46.795Z,5.62
2023-03-11T06:15:46.777Z,5.62
2023-03-11T06:16:46.781Z,5.62
2023-03-11T06:17:46.794Z,5.62
2023-03-11T06:18:46.772Z,5.62
2023-03-11T06:19:46.816Z,5.62
2023-03-11T06:20:46.769Z,5.62
2023-03-11T06:21:46.751Z,11.25
2023-03-11T06:22:46.757Z,11.25
2023-03-11T06:23:46.741Z,11.25
2023-03-11T06:24:46.750Z,11.25
2023-03-11T06:25:46.761Z,11.25
2023-03-11T06:26:46.721Z,11.25
2023-03-11T06:27:46.716Z,11.25
2023-03-11T06:28:46.729Z,11.25
2023-03-11T06:29:48.692Z,11.25
2023-03-11T06:30:46.715Z,11.25
2023-03-11T06:31:46.737Z,11.25
2023-03-11T06:32:46.705Z,11.25
2023-03-11T06:33:46.695Z,11.25
2023-03-11T06:34:46.677Z,11.25
2023-03-11T06:35:46.703Z,11.25
2023-03-11T06:36:46.662Z,11.25
2023-03-11T06:37:46.657Z,11.25
2023-03-11T06:38:46.656Z,11.25
2023-03-11T06:39:46.644Z,11.25
2023-03-11T06:40:46.634Z,11.25
2023-03-11T06:41:46.669Z,11.25
2023-03-11T06:42:46.636Z,11.25
2023-03-11T06:43:46.626Z,11.25
2023-03-11T06:44:46.622Z,11.25
2023-03-11T06:45:46.637Z,11.25
2023-03-11T06:46:46.603Z,11.25
2023-03-11T06:47:46.605Z,11.25
2023-03-11T06:48:46.614Z,11.25
2023-03-11T06:49:46.605Z,11.25
2023-03-11T06:50:48.466Z,11.25
2023-03-11T06:51:46.742Z,11.25
2023-03-11T06:52:46.571Z,11.25
2023-03-11T06:53:46.593Z,11.25
2023-03-11T06:54:46.581Z,11.25
2023-03-11T06:55:46.554Z,11.25
2023-03-11T06:56:46.576Z,5.62
2023-03-11T06:57:46.539Z,5.62
2023-03-11T06:58:46.531Z,5.62
2023-03-11T06:59:46.548Z,5.62
2023-03-11T07:00:46.568Z,5.62
2023-03-11T07:01:46.522Z,5.62
2023-03-11T07:02:46.523Z,5.62
2023-03-11T07:03:46.545Z,5.62
2023-03-11T07:04:46.533Z,11.25
2023-03-11T07:05:46.498Z,11.25
2023-03-11T07:06:46.495Z,11.25
2023-03-11T07:07:46.502Z,11.25
2023-03-11T07:08:46.485Z,11.25
2023-03-11T07:09:46.473Z,11.25
2023-03-11T07:10:46.485Z,11.25
2023-03-11T07:11:46.475Z,16.88
2023-03-11T07:12:46.457Z,16.88
2023-03-11T07:13:46.455Z,22.50
2023-03-11T07:14:46.452Z,28.12
2023-03-11T07:15:46.448Z,33.75
2023-03-11T07:16:46.485Z,39.38
2023-03-11T07:17:46.438Z,39.38
2023-03-11T07:18:46.425Z,45.00
2023-03-11T07:19:46.426Z,45.00
2023-03-11T07:20:46.418Z,45.00
2023-03-11T07:21:46.409Z,39.38
2023-03-11T07:22:46.419Z,39.38
2023-03-11T07:23:46.406Z,39.38
2023-03-11T07:24:46.403Z,33.75
2023-03-11T07:25:46.391Z,33.75
2023-03-11T07:26:46.384Z,33.75
2023-03-11T07:27:46.386Z,33.75
2023-03-11T07:28:46.699Z,39.38
2023-03-11T07:29:46.373Z,39.38
2023-03-11T07:30:46.365Z,39.38
2023-03-11T07:31:46.416Z,39.38
2023-03-11T07:32:46.466Z,33.75
2023-03-11T07:33:46.358Z,39.38
2023-03-11T07:34:47.024Z,33.75
2023-03-11T07:35:46.349Z,39.38
2023-03-11T07:36:46.336Z,39.38
2023-03-11T07:37:46.322Z,39.38
2023-03-11T07:38:46.322Z,39.38
2023-03-11T07:39:46.330Z,39.38
2023-03-11T07:40:46.306Z,39.38
2023-03-11T07:41:46.302Z,39.38
2023-03-11T07:42:46.297Z,39.38
2023-03-11T07:43:46.279Z,45.00
2023-03-11T07:44:46.293Z,45.00
2023-03-11T07:45:46.346Z,50.62
2023-03-11T07:46:46.285Z,50.62
2023-03-11T07:47:46.268Z,50.62
2023-03-11T07:48:46.278Z,56.25
2023-03-11T07:49:46.259Z,56.25
2023-03-11T07:50:46.455Z,56.25
2023-03-11T07:51:46.254Z,61.88
2023-03-11T07:52:46.240Z,67.50
2023-03-11T07:53:46.236Z,73.12
2023-03-11T07:54:46.245Z,84.38
2023-03-11T07:55:46.220Z,95.62
2023-03-11T07:56:46.214Z,106.88
2023-03-11T07:57:46.209Z,118.12
2023-03-11T07:58:46.217Z,118.12
2023-03-11T07:59:46.216Z,140.62
2023-03-11T08:00:46.216Z,191.25
2023-03-11T08:01:46.184Z,174.38
2023-03-11T08:02:46.277Z,225.00
2023-03-11T08:03:46.224Z,286.88
2023-03-11T08:04:46.169Z,298.12
2023-03-11T08:05:46.160Z,388.12
2023-03-11T08:06:46.193Z,444.38
2023-03-11T08:07:46.148Z,500.62
2023-03-11T08:08:46.145Z,765.00
2023-03-11T08:09:46.171Z,883.12
2023-03-11T08:10:46.133Z,939.38
2023-03-11T08:11:47.545Z,961.88
2023-03-11T08:12:46.117Z,961.88
2023-03-11T08:13:46.124Z,815.62
2023-03-11T08:14:46.109Z,163.12
2023-03-11T08:15:46.185Z,793.12
2023-03-11T08:16:46.106Z,978.75
2023-03-11T08:17:46.099Z,1051.88
2023-03-11T08:18:46.096Z,731.25
2023-03-11T08:19:46.089Z,1164.38
2023-03-11T08:20:46.101Z,1130.62
2023-03-11T08:21:46.087Z,1203.75
2023-03-11T08:22:57.757Z,1316.25
2023-03-11T08:23:47.066Z,1451.25
2023-03-11T08:24:46.074Z,1620.00
2023-03-11T08:25:46.074Z,1546.88
2023-03-11T08:26:46.067Z,1698.75
2023-03-11T08:27:46.059Z,2025.00
2023-03-11T08:28:46.046Z,489.38
2023-03-11T08:29:46.023Z,1006.88
2023-03-11T08:30:46.064Z,146.25
2023-03-11T08:31:46.036Z,140.62
2023-03-11T08:32:46.097Z,129.38
2023-03-11T08:33:46.002Z,123.75
2023-03-11T08:34:45.994Z,129.38
2023-03-11T08:35:46.003Z,129.38
2023-03-11T08:36:45.991Z,146.25
2023-03-11T08:37:45.962Z,157.50
2023-03-11T08:38:46.033Z,545.62
2023-03-11T08:39:45.980Z,714.38
2023-03-11T08:40:45.945Z,191.25
2023-03-11T08:41:45.951Z,1125.00
2023-03-11T08:42:45.937Z,995.62
2023-03-11T08:43:45.934Z,258.75
2023-03-11T08:44:45.925Z,219.38
2023-03-11T08:45:45.943Z,995.62
2023-03-11T08:46:45.981Z,703.12
2023-03-11T08:47:45.909Z,613.12
2023-03-11T08:48:45.913Z,292.50
2023-03-11T08:49:45.889Z,1490.62
2023-03-11T08:50:53.737Z,1035.00
2023-03-11T08:51:46.876Z,1653.75
2023-03-11T08:52:45.875Z,1631.25
2023-03-11T08:53:45.859Z,697.50
2023-03-11T08:54:45.877Z,1687.50
2023-03-11T08:55:45.850Z,1485.00
2023-03-11T08:56:45.856Z,1445.62
2023-03-11T08:57:45.831Z,1445.62
2023-03-11T08:58:45.850Z,1440.00
2023-03-11T08:59:45.826Z,1366.88
2023-03-11T09:00:45.819Z,1153.12
2023-03-11T09:01:45.820Z,1147.50
2023-03-11T09:02:45.911Z,1198.12
2023-03-11T09:03:45.795Z,1316.25
2023-03-11T09:04:45.786Z,1288.12
2023-03-11T09:05:45.815Z,1327.50
2023-03-11T09:06:45.777Z,1411.88
2023-03-11T09:07:45.764Z,1400.62
2023-03-11T09:08:45.795Z,1417.50
2023-03-11T09:09:45.763Z,1243.12
2023-03-11T09:10:45.744Z,1231.88
2023-03-11T09:11:45.729Z,1288.12
2023-03-11T09:12:45.736Z,1158.75
2023-03-11T09:13:45.747Z,1119.38
2023-03-11T09:14:45.716Z,1091.25
2023-03-11T09:15:45.691Z,658.12
2023-03-11T09:16:45.708Z,725.62
2023-03-11T09:17:45.685Z,810.00
2023-03-11T09:18:45.676Z,821.25
2023-03-11T09:19:45.677Z,1243.12
2023-03-11T09:20:45.659Z,382.50
2023-03-11T09:21:45.650Z,253.12
2023-03-11T09:22:45.654Z,247.50
2023-03-11T09:23:45.656Z,202.50
2023-03-11T09:24:45.643Z,185.62
2023-03-11T09:25:45.614Z,180.00
2023-03-11T09:26:45.652Z,135.00
2023-03-11T09:27:45.598Z,123.75
2023-03-11T09:28:45.584Z,129.38
2023-03-11T09:29:45.573Z,112.50
2023-03-11T09:30:45.564Z,101.25
2023-03-11T09:31:45.660Z,95.62
2023-03-11T09:32:45.597Z,90.00
2023-03-11T09:33:45.539Z,84.38
2023-03-11T09:34:45.538Z,84.38
2023-03-11T09:35:45.679Z,78.75
2023-03-11T09:36:45.522Z,78.75
2023-03-11T09:37:45.521Z,73.12
2023-03-11T09:38:45.524Z,73.12
2023-03-11T09:39:45.490Z,73.12
2023-03-11T09:40:47.013Z,73.12
2023-03-11T09:41:57.541Z,73.12
2023-03-11T09:42:46.474Z,73.12
2023-03-11T09:43:45.466Z,67.50
2023-03-11T09:44:45.452Z,67.50
2023-03-11T09:45:45.443Z,67.50
2023-03-11T09:46:45.565Z,67.50
2023-03-11T09:47:45.432Z,67.50
2023-03-11T09:48:45.431Z,73.12
2023-03-11T09:49:45.422Z,73.12
2023-03-11T09:50:45.428Z,78.75
2023-03-11T09:51:45.405Z,78.75
2023-03-11T09:52:45.425Z,84.38
2023-03-11T09:53:45.399Z,90.00
2023-03-11T09:54:45.382Z,95.62
2023-03-11T09:55:45.382Z,101.25
2023-03-11T09:56:45.392Z,112.50
2023-03-11T09:57:45.356Z,118.12
2023-03-11T09:58:45.369Z,151.88
2023-03-11T09:59:45.350Z,157.50
2023-03-11T10:00:45.348Z,168.75
2023-03-11T10:01:45.392Z,191.25
2023-03-11T10:02:45.452Z,185.62
2023-03-11T10:03:45.332Z,180.00
2023-03-11T10:04:45.302Z,174.38
2023-03-11T10:05:45.296Z,168.75
2023-03-11T10:06:45.292Z,163.12
2023-03-11T10:07:45.300Z,157.50
2023-03-11T10:08:45.303Z,151.88
2023-03-11T10:09:45.272Z,157.50
2023-03-11T10:10:45.271Z,168.75
2023-03-11T10:11:45.290Z,163.12
2023-03-11T10:12:45.254Z,157.50
2023-03-11T10:13:45.245Z,140.62
2023-03-11T10:14:45.271Z,123.75
2023-03-11T10:15:45.239Z,101.25
2023-03-11T10:16:45.308Z,90.00
2023-03-11T10:17:45.238Z,90.00
2023-03-11T10:18:45.219Z,90.00
2023-03-11T10:19:45.219Z,84.38
2023-03-11T10:20:45.214Z,78.75
2023-03-11T10:21:45.194Z,73.12
2023-03-11T10:22:45.196Z,73.12
2023-03-11T10:23:45.186Z,67.50
2023-03-11T10:24:45.202Z,67.50
2023-03-11T10:25:45.173Z,61.88
2023-03-11T10:26:45.165Z,61.88
2023-03-11T10:27:45.147Z,56.25
2023-03-11T10:28:45.149Z,56.25
2023-03-11T10:29:45.140Z,50.62
2023-03-11T10:30:45.167Z,50.62
2023-03-11T10:31:45.207Z,50.62
2023-03-11T10:32:45.212Z,50.62
2023-03-11T10:33:47.636Z,50.62
2023-03-11T10:34:45.111Z,50.62
2023-03-11T10:35:45.144Z,45.00
2023-03-11T10:36:45.114Z,45.00
2023-03-11T10:37:49.735Z,45.00
2023-03-11T10:38:45.083Z,45.00
2023-03-11T10:39:45.088Z,50.62
2023-03-11T10:40:45.076Z,50.62
2023-03-11T10:41:45.118Z,56.25
2023-03-11T10:42:45.073Z,61.88
2023-03-11T10:43:45.050Z,61.88
2023-03-11T10:44:45.040Z,67.50
2023-03-11T10:45:45.090Z,73.12
2023-03-11T10:46:45.034Z,73.12
2023-03-11T10:47:45.042Z,78.75
2023-03-11T10:48:45.022Z,84.38
2023-03-11T10:49:45.044Z,84.38
2023-03-11T10:50:45.011Z,90.00
2023-03-11T10:51:45.014Z,95.62
2023-03-11T10:52:44.992Z,95.62
2023-03-11T10:53:45.011Z,95.62
2023-03-11T10:54:44.989Z,101.25
2023-03-11T10:55:44.988Z,140.62
2023-03-11T10:56:44.971Z,151.88
2023-03-11T10:57:44.967Z,180.00
2023-03-11T10:58:44.975Z,174.38
2023-03-11T10:59:44.973Z,168.75
2023-03-11T11:00:44.973Z,168.75
2023-03-11T11:01:44.955Z,180.00
2023-03-11T11:02:44.964Z,213.75
2023-03-11T11:03:44.928Z,196.88
2023-03-11T11:04:44.932Z,185.62
2023-03-11T11:05:44.920Z,151.88
2023-03-11T11:06:44.970Z,151.88
2023-03-11T11:07:44.908Z,151.88
2023-03-11T11:08:44.904Z,146.25
2023-03-11T11:09:44.915Z,123.75
2023-03-11T11:10:44.893Z,112.50
2023-03-11T11:11:44.886Z,95.62
2023-03-11T11:12:44.943Z,95.62
2023-03-11T11:13:44.884Z,84.38
2023-03-11T11:14:44.874Z,78.75
2023-03-11T11:15:44.851Z,78.75
2023-03-11T11:16:44.940Z,73.12
2023-03-11T11:17:44.842Z,73.12
2023-03-11T11:18:44.863Z,67.50
2023-03-11T11:19:44.829Z,67.50
2023-03-11T11:20:44.820Z,61.88
2023-03-11T11:21:51.835Z,61.88
2023-03-11T11:22:44.823Z,61.88
2023-03-11T11:23:44.842Z,61.88
2023-03-11T11:24:44.807Z,67.50
2023-03-11T11:25:44.791Z,67.50
2023-03-11T11:26:44.785Z,73.12
2023-03-11T11:27:44.810Z,73.12
2023-03-11T11:28:44.781Z,78.75
2023-03-11T11:29:44.782Z,78.75
2023-03-11T11:30:44.837Z,84.38
2023-03-11T11:31:44.773Z,84.38
2023-03-11T11:32:44.771Z,90.00
2023-03-11T11:33:44.747Z,95.62
2023-03-11T11:34:44.748Z,95.62
2023-03-11T11:35:44.761Z,90.00
2023-03-11T11:36:44.723Z,84.38
2023-03-11T11:37:44.722Z,84.38
2023-03-11T11:38:44.734Z,78.75
2023-03-11T11:39:44.693Z,73.12
2023-03-11T11:40:44.713Z,73.12
2023-03-11T11:41:44.713Z,67.50
2023-03-11T11:42:44.718Z,67.50
2023-03-11T11:43:44.681Z,67.50
2023-03-11T11:44:44.678Z,67.50
2023-03-11T11:45:44.746Z,67.50
2023-03-11T11:46:44.660Z,67.50
2023-03-11T11:47:44.684Z,67.50
2023-03-11T11:48:44.686Z,73.12
2023-03-11T11:49:44.638Z,106.88
2023-03-11T11:50:44.665Z,73.12
2023-03-11T11:51:44.671Z,73.12
2023-03-11T11:52:45.263Z,73.12
2023-03-11T11:53:44.631Z,67.50
2023-03-11T11:54:44.624Z,67.50
2023-03-11T11:55:44.664Z,61.88
2023-03-11T11:56:44.621Z,61.88
2023-03-11T11:57:44.600Z,61.88
2023-03-11T11:58:44.583Z,56.25
2023-03-11T11:59:44.605Z,56.25
2023-03-11T12:00:44.581Z,56.25
2023-03-11T12:01:44.571Z,56.25
2023-03-11T12:02:44.612Z,50.62
2023-03-11T12:03:44.629Z,50.62
2023-03-11T12:04:44.562Z,50.62
2023-03-11T12:05:44.606Z,50.62
2023-03-11T12:06:44.559Z,50.62
2023-03-11T12:07:44.536Z,50.62
2023-03-11T12:08:44.548Z,50.62
2023-03-11T12:09:44.570Z,56.25
2023-03-11T12:10:44.573Z,56.25
2023-03-11T12:11:44.528Z,56.25
2023-03-11T12:12:44.549Z,61.88
2023-03-11T12:13:44.545Z,61.88
2023-03-11T12:14:44.542Z,67.50
2023-03-11T12:15:44.526Z,67.50
2023-03-11T12:16:44.488Z,73.12
2023-03-11T12:17:44.477Z,61.88
2023-03-11T12:18:44.487Z,61.88
2023-03-11T12:19:44.474Z,61.88
2023-03-11T12:20:44.477Z,61.88
2023-03-11T12:21:44.461Z,56.25
2023-03-11T12:22:44.471Z,56.25
2023-03-11T12:23:44.453Z,56.25
2023-03-11T12:24:44.453Z,50.62
2023-03-11T12:25:44.443Z,50.62
2023-03-11T12:26:44.439Z,50.62
2023-03-11T12:27:44.445Z,50.62
2023-03-11T12:28:44.421Z,50.62
2023-03-11T12:29:44.443Z,50.62
2023-03-11T12:30:44.412Z,50.62
2023-03-11T12:31:44.414Z,50.62
2023-03-11T12:32:44.446Z,56.25
2023-03-11T12:33:44.398Z,56.25
2023-03-11T12:34:44.405Z,56.25
2023-03-11T12:35:44.422Z,56.25
2023-03-11T12:36:44.384Z,50.62
2023-03-11T12:37:44.391Z,50.62
2023-03-11T12:38:44.364Z,50.62
2023-03-11T12:39:44.357Z,50.62
2023-03-11T12:40:44.413Z,50.62
2023-03-11T12:41:44.357Z,50.62
2023-03-11T12:42:44.369Z,50.62
2023-03-11T12:43:44.370Z,50.62
2023-03-11T12:44:44.335Z,50.62
2023-03-11T12:45:44.328Z,56.25
2023-03-11T12:46:44.344Z,56.25
2023-03-11T12:47:44.330Z,50.62
2023-03-11T12:48:44.316Z,50.62
2023-03-11T12:49:44.344Z,50.62
2023-03-11T12:50:44.307Z,50.62
2023-03-11T12:51:44.303Z,50.62
2023-03-11T12:52:44.306Z,50.62
2023-03-11T12:53:44.304Z,50.62
2023-03-11T12:54:44.294Z,50.62
2023-03-11T12:55:44.287Z,50.62
2023-03-11T12:56:44.278Z,50.62
2023-03-11T12:57:44.285Z,50.62
2023-03-11T12:58:44.262Z,50.62
2023-03-11T12:59:44.253Z,50.62